createdAt,value
2017-11-28T00:01:30.144Z,39.37
2017-11-28T00:03:57.532Z,39.34
2017-11-28T00:06:24.942Z,39.39
2017-11-28T00:08:52.293Z,39.35
2017-11-28T00:11:19.706Z,39.37
2017-11-28T00:13:47.142Z,39.37
2017-11-28T00:16:14.491Z,39.35
2017-11-28T00:18:41.918Z,39.34
2017-11-28T00:21:09.331Z,39.32
2017-11-28T00:23:36.681Z,39.37
2017-11-28T00:26:04.092Z,39.33
2017-11-28T00:28:31.441Z,39.34
2017-11-28T00:30:58.823Z,39.33
2017-11-28T00:33:26.218Z,39.39
2017-11-28T00:35:53.569Z,39.38
2017-11-28T00:38:20.952Z,39.37
2017-11-28T00:40:48.511Z,39.31
2017-11-28T00:43:15.871Z,39.33
2017-11-28T00:45:43.213Z,39.35
2017-11-28T00:48:10.648Z,39.35
2017-11-28T00:50:38.263Z,39.35
2017-11-28T00:53:05.723Z,39.37
2017-11-28T00:55:33.085Z,39.33
2017-11-28T00:58:00.441Z,39.36
2017-11-28T01:00:27.898Z,39.36
2017-11-28T01:02:55.305Z,39.36
2017-11-28T01:05:22.735Z,39.32
2017-11-28T01:07:50.140Z,39.35
2017-11-28T01:10:17.538Z,39.30
2017-11-28T01:12:44.931Z,39.30
2017-11-28T01:15:12.303Z,39.31
2017-11-28T01:17:39.997Z,39.30
2017-11-28T01:20:07.417Z,39.32
2017-11-28T01:22:35.113Z,39.31
2017-11-28T01:25:02.453Z,39.28
2017-11-28T01:27:29.868Z,39.35
2017-11-28T01:29:57.279Z,39.27
2017-11-28T01:32:24.711Z,39.28
2017-11-28T01:34:52.051Z,39.30
2017-11-28T01:37:19.540Z,39.30
2017-11-28T01:39:47.045Z,39.27
2017-11-28T01:42:14.451Z,39.27
2017-11-28T01:44:41.861Z,39.26
2017-11-28T01:47:09.491Z,39.22
2017-11-28T01:49:36.893Z,39.25
2017-11-28T01:52:04.276Z,39.25
2017-11-28T01:54:31.660Z,39.29
2017-11-28T01:56:59.317Z,39.25
2017-11-28T01:59:28.241Z,39.17
2017-11-28T02:01:55.636Z,38.98
2017-11-28T02:04:22.983Z,39.10
2017-11-28T02:06:50.353Z,39.00
2017-11-28T02:09:17.857Z,39.01
2017-11-28T02:11:45.251Z,39.14
2017-11-28T02:14:12.695Z,39.09
2017-11-28T02:16:40.179Z,39.18
2017-11-28T02:19:07.564Z,39.20
2017-11-28T02:21:34.991Z,39.15
2017-11-28T02:24:02.486Z,39.15
2017-11-28T02:26:30.173Z,39.23
2017-11-28T02:28:57.570Z,39.20
2017-11-28T02:31:24.982Z,39.21
2017-11-28T02:33:52.388Z,39.24
2017-11-28T02:36:19.793Z,39.17
2017-11-28T02:38:47.178Z,39.12
2017-11-28T02:41:14.564Z,39.10
2017-11-28T02:43:41.975Z,39.12
2017-11-28T02:46:09.358Z,39.13
2017-11-28T02:48:36.811Z,39.09
2017-11-28T02:51:04.222Z,39.06
2017-11-28T02:53:31.628Z,38.92
2017-11-28T02:55:59.066Z,38.82
2017-11-28T02:58:26.480Z,38.96
2017-11-28T03:00:53.872Z,38.88
2017-11-28T03:03:21.358Z,38.82
2017-11-28T03:05:48.805Z,38.96
2017-11-28T03:08:16.178Z,38.92
2017-11-28T03:10:43.629Z,38.84
2017-11-28T03:13:11.010Z,38.89
2017-11-28T03:15:38.398Z,38.80
2017-11-28T03:18:05.800Z,38.86
2017-11-28T03:20:33.182Z,38.83
2017-11-28T03:23:00.658Z,38.80
2017-11-28T03:25:28.068Z,38.74
2017-11-28T03:27:55.436Z,38.59
2017-11-28T03:30:22.829Z,38.68
2017-11-28T03:32:50.208Z,38.74
2017-11-28T03:35:17.625Z,38.67
2017-11-28T03:37:45.060Z,38.68
2017-11-28T03:40:12.442Z,38.57
2017-11-28T03:42:39.930Z,38.54
2017-11-28T03:45:07.344Z,38.56
2017-11-28T03:47:34.845Z,38.53
2017-11-28T03:50:02.224Z,38.51
2017-11-28T03:52:29.611Z,38.48
2017-11-28T03:54:57.100Z,38.48
2017-11-28T03:57:24.461Z,38.32
2017-11-28T03:59:51.838Z,38.44
2017-11-28T04:02:19.289Z,38.46
2017-11-28T04:04:46.771Z,38.43
2017-11-28T04:07:14.181Z,38.43
2017-11-28T04:09:41.605Z,38.20
2017-11-28T04:12:09.009Z,38.09
2017-11-28T04:14:36.418Z,38.00
2017-11-28T04:17:03.869Z,38.04
2017-11-28T04:19:31.254Z,37.84
2017-11-28T04:21:58.689Z,37.62
2017-11-28T04:24:26.063Z,37.57
2017-11-28T04:26:53.476Z,37.44
2017-11-28T04:29:21.155Z,37.27
2017-11-28T04:31:48.619Z,37.12
2017-11-28T04:34:16.028Z,37.25
2017-11-28T04:36:43.486Z,36.97
2017-11-28T04:39:10.923Z,36.88
2017-11-28T04:41:38.351Z,36.83
2017-11-28T04:44:05.831Z,36.78
2017-11-28T04:46:33.277Z,36.67
2017-11-28T04:49:00.743Z,36.54
2017-11-28T04:51:28.208Z,36.65
2017-11-28T04:53:55.568Z,36.43
2017-11-28T04:56:23.042Z,36.41
2017-11-28T04:58:50.484Z,36.37
2017-11-28T05:01:17.976Z,36.32
2017-11-28T05:03:45.431Z,36.14
2017-11-28T05:06:12.853Z,36.18
2017-11-28T05:08:40.226Z,35.96
2017-11-28T05:11:07.876Z,35.97
2017-11-28T05:13:35.269Z,36.15
2017-11-28T05:16:02.660Z,36.13
2017-11-28T05:18:30.125Z,36.16
2017-11-28T05:20:57.541Z,36.27
2017-11-28T05:23:25.056Z,36.19
2017-11-28T05:25:52.521Z,36.31
2017-11-28T05:28:20.024Z,36.46
2017-11-28T05:30:47.500Z,36.42
2017-11-28T05:33:15.013Z,36.50
2017-11-28T05:35:42.434Z,36.61
2017-11-28T05:38:09.924Z,36.62
2017-11-28T05:40:37.390Z,36.59
2017-11-28T05:43:04.780Z,36.67
2017-11-28T05:45:32.214Z,36.69
2017-11-28T05:47:59.663Z,36.69
2017-11-28T05:50:27.099Z,36.72
2017-11-28T05:52:54.643Z,36.65
2017-11-28T05:55:22.120Z,36.62
2017-11-28T05:57:49.695Z,36.78
2017-11-28T06:00:17.285Z,36.65
2017-11-28T06:02:45.573Z,36.62
2017-11-28T06:05:13.008Z,36.67
2017-11-28T06:07:40.507Z,36.66
2017-11-28T06:10:08.072Z,36.63
2017-11-28T06:12:35.532Z,36.67
2017-11-28T06:15:02.948Z,36.64
2017-11-28T06:17:30.424Z,36.62
2017-11-28T06:19:57.878Z,36.69
2017-11-28T06:22:25.307Z,36.70
2017-11-28T06:24:52.773Z,36.62
2017-11-28T06:27:20.166Z,36.83
2017-11-28T06:29:47.699Z,36.47
2017-11-28T06:32:15.447Z,36.69
2017-11-28T06:34:43.002Z,36.45
2017-11-28T06:37:10.607Z,36.32
2017-11-28T06:39:38.104Z,36.29
2017-11-28T06:42:05.545Z,36.19
2017-11-28T06:44:33.044Z,36.28
2017-11-28T06:47:00.553Z,36.35
2017-11-28T06:49:28.118Z,36.22
2017-11-28T06:51:55.775Z,36.37
2017-11-28T06:54:23.288Z,36.53
2017-11-28T06:56:50.901Z,36.00
2017-11-28T06:59:18.908Z,35.89
2017-11-28T07:01:46.513Z,35.91
2017-11-28T07:04:14.008Z,36.02
2017-11-28T07:06:41.740Z,36.28
2017-11-28T07:09:09.333Z,35.94
2017-11-28T07:11:36.835Z,36.16
2017-11-28T07:14:04.357Z,35.88
2017-11-28T07:16:31.873Z,35.99
2017-11-28T07:18:59.441Z,35.96
2017-11-28T07:21:27.012Z,35.93
2017-11-28T07:23:56.356Z,35.97
2017-11-28T07:26:23.827Z,36.09
2017-11-28T07:28:51.229Z,35.83
2017-11-28T07:31:18.831Z,36.03
2017-11-28T07:33:46.289Z,36.06
2017-11-28T07:36:13.700Z,35.83
2017-11-28T07:38:41.177Z,35.82
2017-11-28T07:41:08.686Z,35.65
2017-11-28T07:43:36.072Z,35.63
2017-11-28T07:46:03.542Z,35.63
2017-11-28T07:48:40.300Z,35.58
2017-11-28T07:51:07.754Z,35.59
2017-11-28T07:53:35.270Z,35.42
2017-11-28T07:56:02.880Z,35.42
2017-11-28T07:58:32.164Z,35.64
2017-11-28T08:01:00.118Z,36.22
2017-11-28T08:03:28.370Z,35.74
2017-11-28T08:05:57.202Z,35.57
2017-11-28T08:08:24.808Z,35.36
2017-11-28T08:10:52.278Z,35.95
2017-11-28T08:13:20.784Z,35.43
2017-11-28T08:15:48.617Z,35.08
2017-11-28T08:18:16.665Z,35.43
2017-11-28T08:20:44.200Z,35.17
2017-11-28T08:23:11.991Z,35.38
2017-11-28T08:25:39.766Z,35.41
2017-11-28T08:28:07.324Z,34.98
2017-11-28T08:30:34.971Z,34.97
2017-11-28T08:33:03.024Z,34.91
2017-11-28T08:35:32.677Z,34.99
2017-11-28T08:38:00.916Z,35.13
2017-11-28T08:40:28.392Z,35.15
2017-11-28T08:42:55.855Z,35.27
2017-11-28T08:45:24.022Z,35.14
2017-11-28T08:50:27.491Z,35.15
2017-11-28T08:52:55.987Z,35.22
2017-11-28T08:55:23.454Z,35.23
2017-11-28T08:57:50.989Z,35.23
2017-11-28T09:00:18.646Z,35.22
2017-11-28T09:02:46.410Z,35.26
2017-11-28T09:05:14.067Z,35.19
2017-11-28T09:07:41.741Z,35.17
2017-11-28T09:10:10.114Z,35.16
2017-11-28T09:12:37.590Z,35.21
2017-11-28T09:15:05.671Z,35.23
2017-11-28T09:17:33.152Z,35.23
2017-11-28T09:20:00.609Z,35.22
2017-11-28T09:22:28.075Z,35.21
2017-11-28T09:24:55.507Z,35.25
2017-11-28T09:27:23.037Z,35.26
2017-11-28T09:29:50.548Z,35.28
2017-11-28T09:32:18.661Z,35.35
2017-11-28T09:34:46.858Z,35.32
2017-11-28T09:37:14.379Z,35.17
2017-11-28T09:39:42.223Z,35.29
2017-11-28T09:42:09.782Z,35.16
2017-11-28T09:44:37.363Z,35.18
2017-11-28T09:47:05.954Z,35.16
2017-11-28T09:49:34.224Z,35.08
2017-11-28T09:52:01.645Z,34.98
2017-11-28T09:54:30.855Z,34.89
2017-11-28T09:56:58.633Z,34.90
2017-11-28T09:59:26.008Z,35.00
2017-11-28T10:01:53.492Z,35.00
2017-11-28T10:04:20.984Z,34.82
2017-11-28T10:06:48.424Z,34.85
2017-11-28T10:09:15.869Z,34.70
2017-11-28T10:11:43.386Z,34.78
2017-11-28T10:14:10.948Z,34.84
2017-11-28T10:16:38.441Z,34.72
2017-11-28T10:19:06.696Z,34.78
2017-11-28T10:21:34.181Z,34.57
2017-11-28T10:24:01.811Z,34.63
2017-11-28T10:26:29.375Z,34.57
2017-11-28T10:28:56.809Z,34.86
2017-11-28T10:31:24.263Z,34.64
2017-11-28T10:33:51.739Z,34.84
2017-11-28T10:36:19.233Z,34.71
2017-11-28T10:38:47.926Z,34.75
2017-11-28T10:41:15.311Z,34.53
2017-11-28T10:43:42.819Z,34.57
2017-11-28T10:46:10.303Z,34.42
2017-11-28T10:48:37.737Z,34.33
2017-11-28T10:53:51.953Z,34.13
2017-11-28T10:56:19.407Z,34.12
2017-11-28T10:58:47.120Z,34.13
2017-11-28T11:01:15.377Z,34.48
2017-11-28T11:03:48.242Z,34.14
2017-11-28T11:06:23.133Z,33.99
2017-11-28T11:08:50.996Z,33.94
2017-11-28T11:11:18.733Z,34.14
2017-11-28T11:13:46.915Z,34.16
2017-11-28T11:16:14.869Z,34.19
2017-11-28T11:18:43.209Z,34.17
2017-11-28T11:21:10.840Z,34.07
2017-11-28T11:23:38.357Z,34.02
2017-11-28T11:26:07.438Z,34.03
2017-11-28T11:28:39.117Z,34.00
2017-11-28T11:31:13.016Z,34.15
2017-11-28T11:33:40.528Z,33.87
2017-11-28T11:36:08.416Z,33.86
2017-11-28T11:38:35.863Z,34.05
2017-11-28T11:43:42.368Z,34.13
2017-11-28T11:46:11.547Z,34.15
2017-11-28T11:48:39.078Z,34.07
2017-11-28T11:51:08.583Z,34.12
2017-11-28T11:53:36.083Z,34.03
2017-11-28T11:56:06.112Z,34.07
2017-11-28T11:58:35.166Z,34.02
2017-11-28T12:01:08.066Z,34.11
2017-11-28T12:03:35.967Z,34.14
2017-11-28T12:06:03.600Z,33.97
2017-11-28T12:08:31.306Z,34.00
2017-11-28T12:10:58.762Z,34.04
2017-11-28T12:13:26.405Z,33.89
2017-11-28T12:15:53.883Z,33.89
2017-11-28T12:18:21.447Z,33.92
2017-11-28T12:20:49.160Z,33.71
2017-11-28T12:23:16.698Z,33.71
2017-11-28T12:25:45.036Z,33.65
2017-11-28T12:28:12.795Z,33.61
2017-11-28T12:30:40.221Z,33.67
2017-11-28T12:33:07.760Z,33.60
2017-11-28T12:35:35.783Z,33.60
2017-11-28T12:38:03.333Z,33.37
2017-11-28T12:40:30.929Z,33.25
2017-11-28T12:43:00.263Z,33.39
2017-11-28T12:45:27.829Z,33.42
2017-11-28T12:47:55.452Z,33.48
2017-11-28T12:50:22.915Z,33.36
2017-11-28T12:53:03.265Z,33.41
2017-11-28T12:55:30.844Z,33.36
2017-11-28T12:57:58.267Z,33.39
2017-11-28T13:00:26.377Z,33.31
2017-11-28T13:02:55.326Z,33.27
2017-11-28T13:05:27.082Z,33.34
2017-11-28T13:07:54.485Z,33.28
2017-11-28T13:10:22.191Z,33.46
2017-11-28T13:12:51.260Z,33.53
2017-11-28T13:15:19.511Z,33.87
2017-11-28T13:17:48.562Z,34.12
2017-11-28T13:20:17.082Z,34.00
2017-11-28T13:22:44.971Z,33.13
2017-11-28T13:25:14.604Z,33.84
2017-11-28T13:27:42.095Z,33.18
2017-11-28T13:30:09.852Z,32.98
2017-11-28T13:32:37.315Z,33.18
2017-11-28T13:35:06.308Z,33.19
2017-11-28T13:37:33.914Z,33.18
2017-11-28T13:40:01.447Z,33.05
2017-11-28T13:42:28.942Z,32.77
2017-11-28T13:44:56.456Z,33.07
2017-11-28T13:47:24.205Z,32.95
2017-11-28T13:49:51.844Z,32.84
2017-11-28T13:52:19.401Z,33.09
2017-11-28T13:54:47.023Z,32.54
2017-11-28T13:57:16.125Z,33.05
2017-11-28T13:59:43.753Z,33.02
2017-11-28T14:02:13.681Z,33.30
2017-11-28T14:04:41.986Z,33.11
2017-11-28T14:07:09.657Z,32.85
2017-11-28T14:09:37.127Z,32.81
2017-11-28T14:12:04.608Z,32.90
2017-11-28T14:14:32.279Z,32.75
2017-11-28T14:16:59.775Z,32.77
2017-11-28T14:19:27.940Z,32.76
2017-11-28T14:21:55.847Z,32.76
2017-11-28T14:24:23.247Z,32.84
2017-11-28T14:26:51.398Z,32.59
2017-11-28T14:29:19.027Z,32.80
2017-11-28T14:31:47.383Z,32.78
2017-11-28T14:34:14.870Z,32.90
2017-11-28T14:36:42.651Z,32.53
2017-11-28T14:39:10.147Z,32.72
2017-11-28T14:41:37.857Z,32.68
2017-11-28T14:44:05.855Z,32.80
2017-11-28T14:46:33.698Z,32.47
